Aplicació Alertes

Dades de l'estació automàtica Vinyols i els Arcs

?
?
Resum diari 22:30 TU
Dades diàries de l'estació meteorològica
Temperatura mitjana 8.5 °C
Temperatura màxima 13.1 °C 14:12 TU
Temperatura mínima 4.2 °C 17:47 TU
Humitat relativa mitjana 54%
Precipitació acumulada 0.0 mm
Ratxa màxima del vent (2 m) 31.7 km/h - 314º 12:30 TU
Irradiació solar global 10.3 MJ/m2

El tram horari està expressat en Temps Universal (TU). Cal sumar una hora en horari d'hivern i dues en horari d'estiu per passar a l'hora oficial.

Vinyols i els Arcs

Metadades estació meteorol´gica
Municipi Vinyols i els Arcs
Comarca Baix Camp
Altitud 29 m
Data alta 17.05.1989
Estat actual Operativa
Dades de període
Període
TU
TM
°C
TX
°C
TN
°C
HRM
%
PPT
mm
VVM (2 m)
km/h
DVM (2 m)
graus
VVX (2 m)
km/h
RS
W/m2
00:00 - 00:30 7.3 7.4 7.0 61 0.0 11.2 305 25.6 0
00:30 - 01:00 6.8 7.0 6.8 62 0.0 9.7 302 22.7 0
01:00 - 01:30 6.7 6.8 6.7 61 0.0 8.3 301 18.7 0
01:30 - 02:00 6.8 6.8 6.7 60 0.0 8.3 302 19.4 0
02:00 - 02:30 6.6 6.8 6.5 60 0.0 9.4 301 21.2 0
02:30 - 03:00 6.6 6.7 6.5 60 0.0 8.3 306 23.4 0
03:00 - 03:30 6.5 6.6 6.5 61 0.0 6.8 308 22.3 0
03:30 - 04:00 6.5 6.6 6.2 62 0.0 10.4 297 25.9 0
04:00 - 04:30 6.2 6.4 6.1 62 0.0 13.0 300 28.1 0
04:30 - 05:00 6.1 6.3 5.9 62 0.0 12.6 307 30.6 0
05:00 - 05:30 5.6 5.9 5.1 64 0.0 7.9 333 20.2 0
05:30 - 06:00 5.4 5.6 5.2 63 0.0 5.8 332 16.2 0
06:00 - 06:30 5.5 5.6 5.2 63 0.0 8.6 315 24.1 0
06:30 - 07:00 5.2 5.4 5.1 65 0.0 6.1 326 19.4 0
07:00 - 07:30 5.3 5.4 5.1 65 0.0 8.3 310 22.0 7
07:30 - 08:00 5.7 6.0 5.4 64 0.0 6.8 297 20.2 75
08:00 - 08:30 6.5 6.9 6.0 63 0.0 5.8 286 18.0 158
08:30 - 09:00 7.3 7.7 6.9 60 0.0 8.3 267 19.1 238
09:00 - 09:30 8.0 8.4 7.7 56 0.0 9.0 300 20.5 310
09:30 - 10:00 8.8 9.2 8.3 53 0.0 9.4 301 22.0 373
10:00 - 10:30 9.2 9.4 9.0 51 0.0 11.5 290 24.5 423
10:30 - 11:00 9.8 10.2 9.3 50 0.0 12.2 298 25.9 460
11:00 - 11:30 10.7 10.9 10.3 46 0.0 11.9 299 27.0 485
11:30 - 12:00 11.1 11.4 10.8 43 0.0 13.3 300 26.6 495
12:00 - 12:30 11.5 11.9 11.2 42 0.0 12.6 298 27.0 488
12:30 - 13:00 11.5 11.8 11.2 41 0.0 14.4 303 31.7 471
13:00 - 13:30 11.9 12.4 11.8 40 0.0 11.9 295 25.9 437
13:30 - 14:00 12.6 13.0 12.4 39 0.0 7.2 282 18.7 391
14:00 - 14:30 12.7 13.1 12.4 37 0.0 7.9 300 17.3 332
14:30 - 15:00 12.4 12.8 12.2 38 0.0 8.6 302 18.0 263
15:00 - 15:30 12.2 12.2 12.0 38 0.0 7.9 296 20.9 187
15:30 - 16:00 11.7 12.0 11.3 38 0.0 6.1 298 13.3 110
16:00 - 16:30 10.7 11.3 10.1 39 0.0 6.5 294 15.1 21
16:30 - 17:00 10.1 10.6 9.6 43 0.0 5.4 292 20.5 2
17:00 - 17:30 8.2 9.6 6.3 51 0.0 0.7 293 9.0 0
17:30 - 18:00 4.9 6.0 4.2 64 0.0 0.7 40 4.0 0
18:00 - 18:30 5.8 7.8 4.5 62 0.0 1.1 359 4.3 0
18:30 - 19:00 9.4 10.1 7.9 53 0.0 2.9 316 10.1 0
19:00 - 19:30 9.6 9.9 9.4 53 0.0 3.6 303 14.0 0
19:30 - 20:00 10.1 10.3 9.6 52 0.0 11.9 302 27.4 0
20:00 - 20:30 9.9 10.2 9.5 52 0.0 10.4 309 27.4 0
20:30 - 21:00 9.3 9.5 9.1 53 0.0 5.8 311 15.5 0
21:00 - 21:30 9.1 9.2 8.9 53 0.0 7.9 297 19.4 0
21:30 - 22:00 9.0 9.3 8.8 54 0.0 9.7 299 23.4 0
22:00 - 22:30 9.3 9.4 9.2 56 0.0 13.0 301 28.8 0
22:30 - 23:00 9.2 9.3 9.1 57 0.0 11.9 301 27.7 0

Les dades en taronja només han passat un control de qualitat automàtic. Resta pendent la seva validació definitiva.